Los Lunas ASC

2021-05-08 23:20:00

  • imperial
Date Time Air Temperature Relative Humidity Dewpoint Windchill Heat Index Wind Speed Wind Dir. Rain Solar Radiation Soil Temperature
2m 2m 3m 3m 10cm
US/Mountain F % F F F MPH deg in MJ/m^2 F
max avg avg
2021-05-07 23:30:00 62.5 39.3 37.4 62.5 62.5 1.0 2.4 1.5 194.0 161.8 0.00 0.0000000 76.2
2021-05-07 23:35:00 61.4 40.1 36.9 61.4 61.4 0.0 0.8 0.0 192.6 195.9 0.00 0.0000000 76.0
2021-05-07 23:40:00 60.9 41.6 37.5 60.9 60.9 0.0 0.8 0.0 183.2 163.1 0.00 0.0000000 75.9
2021-05-07 23:45:00 60.5 43.7 38.2 60.5 60.5 1.3 1.3 0.0 1.3 1.3 0.00 0.0000000 75.8
2021-05-07 23:50:00 61.1 41.7 37.6 61.1 61.1 2.2 3.8 2.2 139.8 210.8 0.00 0.0000000 75.7
2021-05-07 23:55:00 60.8 43.5 38.5 60.8 60.8 1.7 3.0 1.2 178.8 171.0 0.00 0.0000000 75.6
2021-05-08 00:00:00 60.4 44.4 38.6 60.4 60.4 0.0 2.8 1.0 41.4 182.2 0.00 0.0000000 75.5
2021-05-08 00:05:00 59.7 46.3 39.0 59.7 59.7 1.2 4.4 1.7 72.5 17.6 0.00 0.0000000 75.4
2021-05-08 00:10:00 59.4 46.6 39.0 59.4 59.4 0.0 2.1 0.4 32.2 135.3 0.00 0.0000000 75.2
2021-05-08 00:15:00 59.0 46.9 38.8 59.0 59.0 2.1 4.0 1.2 339.3 248.7 0.00 0.0000000 75.1
2021-05-08 00:20:00 58.8 47.2 38.8 58.8 58.8 0.8 3.5 1.9 192.5 165.3 0.00 0.0000000 75.0
2021-05-08 00:25:00 58.9 46.9 38.6 58.9 58.9 3.0 4.0 2.6 250.5 234.0 0.00 0.0000000 74.9
2021-05-08 00:30:00 58.2 40.0 34.0 58.2 58.2 4.0 4.2 1.5 124.4 8.9 0.00 0.0000000 74.8
2021-05-08 00:35:00 58.2 46.8 38.0 58.2 58.2 0.0 4.6 2.1 238.2 271.5 0.00 0.0000000 74.7
2021-05-08 00:40:00 57.4 49.2 38.5 57.4 57.4 1.5 3.1 1.7 223.6 206.0 0.00 0.0000000 74.6
2021-05-08 00:45:00 56.7 48.9 37.7 56.7 56.7 0.8 1.7 0.5 35.9 160.3 0.00 0.0000000 74.5
2021-05-08 00:50:00 56.4 46.6 36.2 56.4 56.4 1.9 2.1 0.9 33.4 32.0 0.00 0.0000000 74.3
2021-05-08 00:55:00 56.2 45.9 35.7 56.2 56.2 0.0 3.8 1.5 262.2 174.7 0.00 0.0000000 74.2
2021-05-08 01:00:00 56.4 45.5 35.6 56.4 56.4 3.0 3.5 1.8 187.5 30.4 0.00 0.0000000 74.1
2021-05-08 01:05:00 56.3 45.0 35.2 56.3 56.3 1.0 3.3 1.7 287.8 228.2 0.00 0.0000000 74.0
2021-05-08 01:10:00 55.7 45.7 35.1 55.7 55.7 0.0 1.3 0.2 293.7 266.8 0.00 0.0000000 73.9
2021-05-08 01:15:00 55.3 46.1 34.9 55.3 55.3 0.0 0.0 0.0 342.2 0.0 0.00 0.0000000 73.8
2021-05-08 01:20:00 54.5 47.8 35.0 54.5 54.5 0.0 0.0 0.0 220.9 0.0 0.00 0.0000000 73.7
2021-05-08 01:25:00 53.9 48.1 34.7 53.9 53.9 2.2 2.8 1.3 241.5 234.2 0.00 0.0000000 73.6
2021-05-08 01:30:00 53.5 49.2 34.9 53.5 53.5 0.0 2.1 0.5 272.1 243.1 0.00 0.0000000 73.5
2021-05-08 01:35:00 53.4 48.8 34.6 53.4 53.4 0.0 0.8 0.1 234.8 243.9 0.00 0.0000000 73.3
2021-05-08 01:40:00 53.3 48.5 34.4 53.3 53.3 0.0 0.0 0.0 278.5 0.0 0.00 0.0000000 73.2
2021-05-08 01:45:00 52.8 48.9 34.1 52.8 52.8 0.0 2.8 0.4 305.8 289.0 0.00 0.0000000 73.1
2021-05-08 01:50:00 52.4 49.1 33.8 52.4 52.4 0.0 1.7 0.4 42.3 305.3 0.00 0.0000000 73.0
2021-05-08 01:55:00 51.9 48.0 32.8 51.9 51.9 0.0 0.0 0.0 226.5 0.0 0.00 0.0000000 72.9
2021-05-08 02:00:00 51.7 49.6 33.4 51.7 51.7 0.0 0.0 0.0 97.0 0.0 0.00 0.0000000 72.8
2021-05-08 02:05:00 51.1 54.1 35.1 51.1 51.1 0.0 0.0 0.0 112.9 0.0 0.00 0.0000000 72.7
2021-05-08 02:10:00 50.5 56.0 35.3 50.5 50.5 1.0 1.3 0.2 225.9 228.9 0.00 0.0000000 72.6
2021-05-08 02:15:00 50.1 56.0 35.1 50.1 50.1 0.0 0.0 0.0 194.2 0.0 0.00 0.0000000 72.5
2021-05-08 02:20:00 50.0 56.5 35.2 50.0 50.0 2.2 3.1 1.3 240.4 222.9 0.00 0.0000000 72.4
2021-05-08 02:25:00 50.2 57.3 35.7 50.2 50.2 0.0 1.9 0.1 309.8 211.2 0.00 0.0000000 72.2
2021-05-08 02:30:00 50.2 54.9 34.6 50.2 50.2 0.0 2.1 0.7 296.5 229.4 0.00 0.0000000 72.2
2021-05-08 02:35:00 49.9 56.3 35.0 49.9 49.9 2.8 3.5 1.4 309.6 232.9 0.00 0.0000000 72.0
2021-05-08 02:40:00 49.6 55.7 34.3 49.6 49.6 0.0 3.3 1.7 240.3 229.3 0.00 0.0000000 71.9
2021-05-08 02:45:00 49.2 57.1 34.6 49.2 49.2 2.1 3.3 1.5 33.2 206.0 0.00 0.0000000 71.8
2021-05-08 02:50:00 48.5 56.4 33.7 48.5 48.5 0.0 1.9 0.2 196.0 40.1 0.00 0.0000000 71.7
2021-05-08 02:55:00 48.4 56.5 33.6 48.4 48.4 0.0 1.0 0.1 9.5 302.4 0.00 0.0000000 71.6
2021-05-08 03:00:00 47.9 58.9 34.2 47.9 47.9 2.6 3.0 0.5 7.0 27.2 0.00 0.0000000 71.5
2021-05-08 03:05:00 47.4 54.1 31.6 47.4 47.4 0.0 2.4 1.3 74.0 358.5 0.00 0.0000000 71.4
2021-05-08 03:10:00 47.2 49.2 29.1 47.2 47.2 0.0 0.0 0.0 50.1 0.0 0.00 0.0000000 71.3
2021-05-08 03:15:00 47.2 50.0 29.5 47.2 47.2 0.0 2.8 0.7 195.2 205.6 0.00 0.0000000 71.2
2021-05-08 03:20:00 47.5 49.7 29.6 47.5 47.5 0.0 1.9 0.7 31.6 6.1 0.00 0.0000000 71.1
2021-05-08 03:25:00 47.1 50.1 29.5 47.1 47.1 0.0 2.6 0.4 69.3 193.6 0.00 0.0000000 71.0
2021-05-08 03:30:00 47.0 51.9 30.3 47.0 47.0 0.0 0.0 0.0 36.0 0.0 0.00 0.0000000 70.9
2021-05-08 03:35:00 46.4 51.5 29.5 46.4 46.4 0.0 0.0 0.0 306.5 0.0 0.00 0.0000000 70.8
2021-05-08 03:40:00 46.6 51.7 29.8 46.6 46.6 0.0 3.1 1.4 233.8 183.3 0.00 0.0000000 70.7
2021-05-08 03:45:00 46.5 52.5 30.0 46.5 46.5 0.0 1.0 0.1 93.9 262.9 0.00 0.0000000 70.6
2021-05-08 03:50:00 45.8 54.6 30.4 45.8 45.8 2.6 2.6 0.3 207.0 192.5 0.00 0.0000000 70.5
2021-05-08 03:55:00 46.0 54.9 30.7 45.0 46.0 3.1 3.5 1.6 237.0 236.6 0.00 0.0000000 70.4
2021-05-08 04:00:00 46.0 56.3 31.3 46.0 46.0 0.0 5.8 1.0 129.2 263.2 0.00 0.0000000 70.3
2021-05-08 04:05:00 46.1 52.2 29.5 46.1 46.1 0.0 3.3 0.6 159.6 305.7 0.00 0.0000000 70.2
2021-05-08 04:10:00 45.8 50.1 28.3 45.8 45.8 2.6 3.5 1.6 243.7 245.3 0.00 0.0000000 70.1
2021-05-08 04:15:00 45.5 48.7 27.3 45.5 45.5 0.0 2.1 0.9 273.4 246.4 0.00 0.0000000 70.0
2021-05-08 04:20:00 45.8 40.4 23.1 44.4 45.8 3.5 3.5 1.4 280.3 252.0 0.00 0.0000000 69.9
2021-05-08 04:25:00 46.5 39.1 22.9 46.5 46.5 2.8 4.2 1.6 222.7 210.9 0.00 0.0000000 69.8
2021-05-08 04:30:00 46.7 40.6 24.0 45.5 46.7 3.5 3.5 0.9 183.0 183.6 0.00 0.0000000 69.7
2021-05-08 04:35:00 46.7 48.0 28.0 46.7 46.7 0.0 2.8 1.3 195.9 87.7 0.00 0.0000000 69.5
2021-05-08 04:40:00 45.3 49.5 27.5 45.3 45.3 1.0 3.1 1.6 144.5 184.5 0.00 0.0000000 69.5
2021-05-08 04:45:00 45.5 53.5 29.6 45.5 45.5 2.2 3.1 1.7 338.9 30.9 0.00 0.0000000 69.4
2021-05-08 04:50:00 46.0 52.9 29.8 46.0 46.0 0.0 3.3 1.5 236.4 246.4 0.00 0.0000000 69.3
2021-05-08 04:55:00 45.7 50.8 28.5 45.7 45.7 1.5 3.8 1.2 210.9 305.9 0.00 0.0000000 69.2
2021-05-08 05:00:00 45.0 50.3 27.6 45.0 45.0 1.7 2.6 1.7 283.4 292.0 0.00 0.0000000 69.1
2021-05-08 05:05:00 44.7 48.6 26.5 43.6 44.7 3.1 3.1 0.9 234.1 353.9 0.00 0.0000000 69.0
2021-05-08 05:10:00 44.2 49.3 26.4 44.2 44.2 2.1 3.5 1.3 197.9 234.3 0.00 0.0000000 68.9
2021-05-08 05:15:00 44.2 51.5 27.4 44.2 44.2 0.0 2.1 0.5 188.9 144.2 0.00 0.0000000 68.8
2021-05-08 05:20:00 43.9 52.8 27.8 43.9 43.9 0.0 0.0 0.0 208.2 0.0 0.00 0.0000000 68.7
2021-05-08 05:25:00 44.0 52.7 27.8 44.0 44.0 0.0 0.0 0.0 287.8 0.0 0.00 0.0000000 68.6
2021-05-08 05:30:00 44.3 52.4 27.9 44.3 44.3 1.3 2.4 1.3 243.1 240.0 0.00 0.0000000 68.5
2021-05-08 05:35:00 44.6 50.6 27.4 44.6 44.6 1.9 2.4 0.8 289.1 251.5 0.00 0.0000000 68.5
2021-05-08 05:40:00 44.4 52.2 28.0 44.4 44.4 1.2 2.4 0.9 124.3 210.6 0.00 0.0000000 68.4
2021-05-08 05:45:00 44.0 61.3 31.6 44.0 44.0 2.4 2.4 0.8 51.7 51.3 0.00 0.0000000 68.3
2021-05-08 05:50:00 43.2 61.8 30.9 43.2 43.2 1.3 2.4 0.9 51.6 59.4 0.00 0.0000000 68.2
2021-05-08 05:55:00 42.9 60.8 30.3 42.9 42.9 0.0 2.8 1.3 186.4 166.0 0.00 0.0000000 68.1
2021-05-08 06:00:00 43.0 60.2 30.2 43.0 43.0 0.0 1.3 0.2 329.1 59.9 0.00 0.0020000 68.0
2021-05-08 06:05:00 42.7 60.9 30.1 42.7 42.7 0.0 0.0 0.0 232.5 0.0 0.00 0.0050000 67.9
2021-05-08 06:10:00 42.7 59.5 29.6 42.7 42.7 0.0 0.0 0.0 35.8 0.0 0.00 0.0040000 67.8
2021-05-08 06:15:00 42.6 60.1 29.7 42.6 42.6 0.0 2.1 0.6 65.4 40.5 0.00 0.0060000 67.7
2021-05-08 06:20:00 42.6 59.2 29.3 42.6 42.6 0.0 0.0 0.0 152.2 0.0 0.00 0.0110000 67.7
2021-05-08 06:25:00 42.8 60.8 30.2 42.8 42.8 0.0 2.6 0.5 173.4 212.5 0.00 0.0160000 67.6
2021-05-08 06:30:00 43.1 56.5 28.6 43.1 43.1 0.0 0.0 0.0 210.4 0.0 0.00 0.0220000 67.5
2021-05-08 06:35:00 43.2 55.8 28.5 43.2 43.2 2.2 2.6 1.6 241.6 211.4 0.00 0.0290000 67.4
2021-05-08 06:40:00 43.7 57.9 29.8 43.7 43.7 1.7 2.8 1.3 204.7 225.3 0.00 0.0380000 67.4
2021-05-08 06:45:00 43.9 57.1 29.7 43.9 43.9 1.9 3.8 1.6 156.7 211.5 0.00 0.0410000 67.3
2021-05-08 06:50:00 45.1 49.1 27.1 45.1 45.1 0.0 2.6 1.4 182.8 259.3 0.00 0.0470000 67.2
2021-05-08 06:55:00 45.4 50.9 28.3 45.4 45.4 0.0 0.8 0.0 112.2 166.1 0.00 0.0530000 67.1
2021-05-08 07:00:00 45.6 52.4 29.2 45.6 45.6 1.5 1.5 0.1 141.4 139.0 0.00 0.0640000 67.0
2021-05-08 07:05:00 45.9 54.8 30.6 45.9 45.9 0.8 1.7 0.7 172.6 153.1 0.00 0.0840000 67.0
2021-05-08 07:10:00 46.7 52.1 30.0 46.7 46.7 0.0 2.2 0.8 217.8 159.3 0.00 0.1030000 66.9
2021-05-08 07:15:00 47.2 51.2 30.1 47.2 47.2 0.0 0.0 0.0 82.0 0.0 0.00 0.1380000 66.8
2021-05-08 07:20:00 48.2 48.7 29.8 48.2 48.2 0.0 0.0 0.0 152.7 0.0 0.00 0.1120000 66.8
2021-05-08 07:25:00 49.4 49.8 31.5 49.4 49.4 0.0 0.0 0.0 92.8 0.0 0.00 0.1280000 66.7
2021-05-08 07:30:00 50.8 49.9 32.8 50.8 50.8 0.8 0.8 0.1 66.5 38.4 0.00 0.1550000 66.7
2021-05-08 07:35:00 51.7 50.4 33.9 51.7 51.7 0.0 1.3 0.2 9.1 45.9 0.00 0.2960000 66.6
2021-05-08 07:40:00 52.5 50.5 34.6 52.5 52.5 0.0 0.0 0.0 3.8 0.0 0.00 0.1770000 66.6
2021-05-08 07:45:00 53.6 42.7 31.4 53.6 53.6 0.0 0.0 0.0 188.6 0.0 0.00 0.1350000 66.5
2021-05-08 07:50:00 53.9 48.1 34.7 53.9 53.9 0.0 2.1 0.8 213.0 165.3 0.00 0.1500000 66.5
2021-05-08 07:55:00 54.4 42.3 31.9 54.4 54.4 0.0 0.0 0.0 213.6 0.0 0.00 0.1520000 66.5
2021-05-08 08:00:00 54.0 40.2 30.4 54.0 54.0 1.9 2.1 0.9 189.7 204.8 0.00 0.1540000 66.4
2021-05-08 08:05:00 54.9 40.0 31.0 54.9 54.9 1.3 2.1 1.5 247.0 212.2 0.00 0.3150000 66.4
2021-05-08 08:10:00 55.4 37.0 29.6 55.4 55.4 1.3 2.6 1.8 253.9 244.1 0.00 0.1900000 66.4
2021-05-08 08:15:00 56.3 40.6 32.6 56.3 56.3 1.9 2.2 1.6 211.2 219.5 0.00 0.2620000 66.4
2021-05-08 08:20:00 56.6 41.7 33.6 56.6 56.6 1.7 2.8 2.0 238.0 224.5 0.00 0.2610000 66.4
2021-05-08 08:25:00 57.5 37.9 32.0 57.5 57.5 2.6 3.3 2.1 238.8 223.5 0.00 0.3720000 66.4
2021-05-08 08:30:00 58.3 38.3 33.0 58.3 58.3 2.1 4.0 2.5 234.7 218.1 0.00 0.3570000 66.4
2021-05-08 08:35:00 59.7 37.5 33.7 59.7 59.7 3.1 3.5 2.8 209.7 231.1 0.00 0.2160000 66.4
2021-05-08 08:40:00 61.1 33.8 32.3 61.1 61.1 2.6 3.0 2.2 196.1 218.1 0.00 0.3200000 66.4
2021-05-08 08:45:00 62.6 33.2 33.2 62.6 62.6 1.3 3.5 2.4 207.8 220.6 0.00 0.3460000 66.5
2021-05-08 08:50:00 63.6 30.5 31.9 63.6 63.6 2.8 3.5 2.3 194.3 220.7 0.00 0.4890000 66.5
2021-05-08 08:55:00 64.9 27.6 30.7 64.9 64.9 2.4 4.4 3.0 213.1 221.9 0.00 0.4550000 66.5
2021-05-08 09:00:00 66.2 25.8 30.0 66.2 66.2 2.6 3.3 2.3 236.6 223.7 0.00 0.3420000 66.6
2021-05-08 09:05:00 67.0 23.0 28.0 67.0 67.0 2.1 3.5 2.4 253.7 196.8 0.00 0.3530000 66.6
2021-05-08 09:10:00 67.7 20.5 25.7 67.7 67.7 2.6 4.2 2.5 242.6 248.8 0.00 0.4090000 66.7
2021-05-08 09:15:00 68.8 14.8 19.0 68.8 68.8 3.7 6.7 3.0 219.4 241.9 0.00 0.4910000 66.8
2021-05-08 09:20:00 68.9 14.9 19.3 68.9 68.9 2.6 5.8 3.7 222.7 216.1 0.00 0.5340000 66.9
2021-05-08 09:25:00 69.8 13.5 17.6 69.8 69.8 2.8 4.7 3.1 274.9 250.7 0.00 0.4880000 66.9
2021-05-08 09:30:00 70.1 17.3 23.6 70.1 70.1 1.0 4.6 2.5 226.7 232.8 0.00 0.3970000 67.1
2021-05-08 09:35:00 69.9 14.4 19.1 69.9 69.9 4.0 5.3 3.3 168.4 178.8 0.00 0.4420000 67.2
2021-05-08 09:40:00 70.2 14.4 19.4 70.2 70.2 3.7 5.1 3.4 172.6 202.4 0.00 0.6050000 67.3
2021-05-08 09:45:00 70.5 12.7 16.7 70.5 70.5 0.8 4.6 2.9 196.2 204.4 0.00 0.4480000 67.4
2021-05-08 09:50:00 72.0 12.6 17.7 72.0 72.0 0.0 3.0 0.6 67.6 14.6 0.00 0.6780000 67.5
2021-05-08 09:55:00 73.4 13.3 20.0 73.4 73.4 0.8 3.5 1.0 68.7 160.8 0.00 0.5040000 67.6
2021-05-08 10:00:00 72.6 15.0 22.3 72.6 72.6 0.0 4.4 2.7 172.5 66.1 0.00 0.7500000 67.8
2021-05-08 10:05:00 73.3 18.2 27.4 73.3 73.3 2.1 4.7 2.1 240.9 35.9 0.00 0.6370000 68.0
2021-05-08 10:10:00 73.2 14.2 21.5 73.2 73.2 5.5 10.5 6.1 204.0 269.8 0.00 0.3720000 68.1
2021-05-08 10:15:00 72.9 14.2 21.2 72.9 72.9 5.1 10.6 6.2 189.4 289.9 0.00 0.6740000 68.3
2021-05-08 10:20:00 73.2 13.7 20.7 73.2 73.2 7.2 14.4 7.9 299.6 267.3 0.00 0.8110000 68.5
2021-05-08 10:25:00 74.7 13.5 21.4 74.7 74.7 6.9 11.3 6.0 342.6 302.8 0.00 0.7670000 68.6
2021-05-08 10:30:00 74.6 13.9 22.1 74.6 74.6 6.3 10.3 5.5 294.1 278.1 0.00 0.7660000 68.8
2021-05-08 10:35:00 74.2 14.8 23.2 74.2 74.2 6.2 12.4 6.8 315.7 259.8 0.00 0.6380000 69.0
2021-05-08 10:40:00 74.1 13.5 21.0 74.1 74.1 9.4 14.7 7.6 267.6 280.4 0.00 0.7920000 69.2
2021-05-08 10:45:00 74.3 13.6 21.3 74.3 74.3 7.4 13.7 8.0 51.7 303.4 0.00 0.8380000 69.4
2021-05-08 10:50:00 75.3 13.6 22.1 75.3 75.3 7.2 14.6 7.7 209.3 293.6 0.00 0.8530000 69.6
2021-05-08 10:55:00 76.1 12.1 20.0 76.1 76.1 7.2 10.1 5.9 289.6 252.2 0.00 0.8420000 69.8
2021-05-08 11:00:00 75.6 15.0 24.6 75.6 75.6 6.5 9.2 6.3 276.3 295.7 0.00 0.7720000 70.0
2021-05-08 11:05:00 75.6 12.5 20.4 75.6 75.6 5.6 11.7 6.8 259.3 247.1 0.00 0.8850000 70.2
2021-05-08 11:10:00 74.6 12.9 20.2 74.6 74.6 6.9 12.8 8.4 280.6 275.6 0.00 0.5670000 70.4
2021-05-08 11:15:00 74.5 13.0 20.4 74.5 74.5 8.0 11.7 7.4 206.4 260.2 0.00 0.5470000 70.7
2021-05-08 11:20:00 73.9 13.4 20.7 73.9 73.9 8.1 15.3 8.4 247.4 271.6 0.00 0.5070000 70.9
2021-05-08 11:25:00 73.7 13.9 21.3 73.7 73.7 3.8 16.0 7.3 226.9 279.3 0.00 0.4670000 71.1
2021-05-08 11:30:00 73.4 13.7 20.8 73.4 73.4 6.3 16.7 9.6 248.3 279.6 0.00 0.4690000 71.3
2021-05-08 11:35:00 73.8 13.0 19.9 73.8 73.8 8.3 16.5 7.7 80.2 264.1 0.00 0.5550000 71.5
2021-05-08 11:40:00 74.6 13.2 20.9 74.6 74.6 8.0 16.0 7.8 230.5 296.6 0.00 0.7640000 71.7
2021-05-08 11:45:00 75.6 12.8 20.9 75.6 75.6 11.0 14.2 8.9 214.0 277.6 0.00 0.9120000 71.9
2021-05-08 11:50:00 75.9 13.2 22.0 75.9 75.9 5.6 11.3 6.9 291.0 305.6 0.00 0.8990000 72.1
2021-05-08 11:55:00 76.4 13.1 22.0 76.4 76.4 6.0 10.6 5.9 201.9 283.4 0.00 0.9020000 72.3
2021-05-08 12:00:00 76.5 11.1 18.3 76.5 76.5 13.9 14.4 6.9 286.8 274.3 0.00 0.9200000 72.5
2021-05-08 12:05:00 76.6 11.9 20.0 76.6 76.6 10.8 13.1 7.8 225.9 267.5 0.00 0.9120000 72.6
2021-05-08 12:10:00 76.0 12.2 20.1 76.0 76.0 6.5 14.7 7.6 211.1 245.7 0.00 0.9450000 72.8
2021-05-08 12:15:00 76.4 12.9 21.7 76.4 76.4 6.0 13.7 7.1 246.1 266.8 0.00 0.8620000 73.0
2021-05-08 12:20:00 76.5 12.4 20.9 76.5 76.5 8.1 9.2 5.4 245.9 280.2 0.00 0.9260000 73.2
2021-05-08 12:25:00 76.8 12.2 20.8 76.8 76.8 7.8 11.0 5.6 239.3 232.0 0.00 0.9220000 73.4
2021-05-08 12:30:00 76.5 11.7 19.5 76.5 76.5 6.5 9.0 6.4 229.1 250.0 0.00 0.9340000 73.6
2021-05-08 12:35:00 76.2 14.2 23.9 76.2 76.2 4.4 12.2 6.9 245.6 251.1 0.00 0.9340000 73.8
2021-05-08 12:40:00 77.5 11.4 19.5 77.5 77.5 7.1 11.3 6.9 242.0 241.9 0.00 0.9180000 74.0
2021-05-08 12:45:00 77.8 12.1 21.2 77.8 77.8 6.7 10.3 5.4 264.5 236.6 0.00 0.9190000 74.3
2021-05-08 12:50:00 78.1 12.1 21.6 78.1 78.1 5.3 8.8 5.8 279.8 233.9 0.00 0.9190000 74.5
2021-05-08 12:55:00 77.8 10.7 18.4 77.8 77.8 5.8 12.8 7.4 307.8 234.3 0.00 0.9120000 74.7
2021-05-08 13:00:00 78.0 11.1 19.5 78.0 78.0 5.1 10.1 6.3 269.3 271.2 0.00 0.9120000 74.9
2021-05-08 13:05:00 79.6 11.5 21.4 79.6 79.6 4.7 9.9 4.6 214.3 250.4 0.00 0.9180000 75.2
2021-05-08 13:10:00 79.2 11.6 21.4 79.2 79.2 7.2 9.7 5.7 315.0 242.8 0.00 0.9190000 75.5
2021-05-08 13:15:00 80.8 9.2 17.2 80.8 80.8 8.3 9.9 6.1 233.1 251.6 0.00 0.9300000 75.7
2021-05-08 13:20:00 80.2 7.9 13.4 80.2 80.2 5.3 14.4 8.6 218.0 236.4 0.00 0.9210000 76.0
2021-05-08 13:25:00 80.3 8.3 14.6 80.3 80.3 6.5 11.7 6.7 241.8 275.9 0.00 0.9280000 76.2
2021-05-08 13:30:00 80.3 7.2 11.2 80.3 80.3 9.0 12.4 7.8 259.1 238.9 0.00 0.7680000 76.5
2021-05-08 13:35:00 80.1 6.8 10.0 80.1 80.1 9.2 14.4 8.0 248.3 249.4 0.00 0.9120000 76.7
2021-05-08 13:40:00 80.7 7.1 11.2 80.7 80.7 8.7 11.9 6.6 292.0 301.4 0.00 0.9080000 77.0
2021-05-08 13:45:00 81.1 6.1 8.1 81.1 81.1 8.7 14.7 8.9 285.4 240.8 0.00 0.9120000 77.2
2021-05-08 13:50:00 81.2 7.3 12.3 81.2 81.2 8.1 15.5 8.2 243.3 272.1 0.00 0.9080000 77.5
2021-05-08 13:55:00 79.4 7.1 10.1 79.4 79.4 6.3 16.7 9.7 296.4 240.7 0.00 0.8990000 77.7
2021-05-08 14:00:00 80.0 7.0 10.5 80.0 80.0 6.7 12.1 7.7 236.4 255.5 0.00 0.8970000 78.0
2021-05-08 14:05:00 79.9 9.3 16.8 79.9 79.9 4.7 16.9 9.3 278.3 242.4 0.00 0.8950000 78.2
2021-05-08 14:10:00 80.9 7.5 12.7 80.9 80.9 8.5 18.9 9.2 273.8 266.9 0.00 0.8830000 78.4
2021-05-08 14:15:00 81.7 6.9 11.2 81.7 81.7 8.1 12.8 7.1 292.9 264.3 0.00 0.8900000 78.6
2021-05-08 14:20:00 81.4 7.5 13.1 81.4 81.4 3.1 11.2 6.1 229.3 277.7 0.00 0.4670000 78.8
2021-05-08 14:25:00 80.3 10.9 20.7 80.3 80.3 4.0 12.6 7.7 300.6 262.7 0.00 0.9150000 79.0
2021-05-08 14:30:00 81.2 8.5 15.8 81.2 81.2 9.0 9.0 5.2 209.1 230.0 0.00 0.9100000 79.2
2021-05-08 14:35:00 81.6 7.9 14.2 81.6 81.6 8.5 11.0 6.5 208.9 253.7 0.00 0.9250000 79.4
2021-05-08 14:40:00 81.6 7.0 11.6 81.6 81.6 6.0 11.9 7.2 293.0 260.8 0.00 0.9380000 79.6
2021-05-08 14:45:00 81.9 7.1 12.0 81.9 81.9 5.6 12.4 6.8 315.8 259.0 0.00 0.8840000 79.8
2021-05-08 14:50:00 82.1 6.6 10.5 82.1 82.1 11.2 14.2 9.0 278.3 278.9 0.00 0.8800000 80.0
2021-05-08 14:55:00 81.8 7.8 14.2 81.8 81.8 7.8 15.8 10.1 240.0 264.0 0.00 0.8670000 80.2
2021-05-08 15:00:00 82.1 7.0 11.8 82.1 82.1 14.0 14.0 7.4 265.9 287.6 0.00 0.8370000 80.3
2021-05-08 15:05:00 82.2 9.3 18.5 82.2 82.2 4.0 16.5 7.0 180.9 258.3 0.00 0.8270000 80.5
2021-05-08 15:10:00 82.5 6.8 11.6 82.5 82.5 8.7 15.1 8.8 233.7 274.4 0.00 0.8110000 80.7
2021-05-08 15:15:00 82.0 7.1 12.1 82.0 82.0 11.0 11.2 8.2 323.1 268.0 0.00 0.8000000 80.8
2021-05-08 15:20:00 82.7 7.0 12.3 82.7 82.7 4.4 13.9 7.5 53.7 280.9 0.00 0.7900000 81.0
2021-05-08 15:25:00 82.1 6.4 9.8 82.1 82.1 8.0 14.2 7.5 325.3 276.8 0.00 0.7800000 81.1
2021-05-08 15:30:00 81.7 6.2 9.1 81.7 81.7 8.1 15.6 10.3 271.7 276.4 0.00 0.7690000 81.3
2021-05-08 15:35:00 82.2 5.3 5.9 82.2 82.2 11.7 13.1 8.0 267.0 257.0 0.00 0.7620000 81.4
2021-05-08 15:40:00 82.3 5.9 8.1 82.3 82.3 8.7 15.3 8.2 248.9 257.8 0.00 0.7520000 81.6
2021-05-08 15:45:00 82.7 5.6 7.4 82.7 82.7 4.9 11.7 7.8 324.9 267.4 0.00 0.7400000 81.7
2021-05-08 15:50:00 82.0 6.5 10.3 82.0 82.0 5.6 11.9 7.6 241.7 297.3 0.00 0.7300000 81.8
2021-05-08 15:55:00 82.1 4.6 2.5 82.1 82.1 11.5 16.0 8.9 219.1 252.9 0.00 0.7170000 81.9
2021-05-08 16:00:00 82.0 4.5 2.3 82.0 82.0 6.7 15.1 10.5 231.2 259.2 0.00 0.6950000 82.0
2021-05-08 16:05:00 81.8 4.9 3.9 81.8 81.8 10.3 15.6 9.1 224.3 244.3 0.00 0.6880000 82.1
2021-05-08 16:10:00 81.6 5.2 5.0 81.6 81.6 8.8 13.0 10.2 246.1 247.0 0.00 0.6780000 82.2
2021-05-08 16:15:00 82.0 5.2 5.1 82.0 82.0 9.7 15.3 9.2 280.0 288.2 0.00 0.6660000 82.3
2021-05-08 16:20:00 82.0 4.9 3.8 82.0 82.0 7.4 15.8 9.2 268.4 264.9 0.00 0.6530000 82.3
2021-05-08 16:25:00 82.4 4.8 4.0 82.4 82.4 11.0 12.2 6.1 277.3 273.5 0.00 0.6400000 82.4
2021-05-08 16:30:00 82.3 5.1 5.1 82.3 82.3 5.5 11.7 6.8 268.3 300.8 0.00 0.6250000 82.5
2021-05-08 16:35:00 82.6 5.0 4.9 82.6 82.6 10.3 12.1 8.1 249.9 272.9 0.00 0.6110000 82.5
2021-05-08 16:40:00 82.1 4.8 3.6 82.1 82.1 9.9 11.0 7.9 61.4 263.2 0.00 0.5960000 82.6
2021-05-08 16:45:00 81.7 5.2 4.9 81.7 81.7 10.3 11.7 7.9 204.8 261.7 0.00 0.5810000 82.6
2021-05-08 16:50:00 81.5 5.4 5.8 81.5 81.5 6.2 11.3 6.2 170.3 271.2 0.00 0.5660000 82.6
2021-05-08 16:55:00 81.7 5.4 5.8 81.7 81.7 10.8 12.8 7.7 239.9 277.8 0.00 0.5500000 82.6
2021-05-08 17:00:00 81.5 5.6 6.6 81.5 81.5 4.0 12.2 6.9 239.2 265.7 0.00 0.5340000 82.6
2021-05-08 17:05:00 80.9 6.1 8.0 80.9 80.9 6.0 14.4 8.4 279.2 286.8 0.00 0.5210000 82.6
2021-05-08 17:10:00 80.8 5.9 7.0 80.8 80.8 3.3 14.4 9.0 324.6 290.8 0.00 0.5050000 82.6
2021-05-08 17:15:00 81.4 5.4 5.7 81.4 81.4 8.0 14.7 7.8 170.8 277.8 0.00 0.4880000 82.6
2021-05-08 17:20:00 81.2 6.0 7.8 81.2 81.2 9.0 13.1 6.6 290.3 278.1 0.00 0.4720000 82.6
2021-05-08 17:25:00 80.9 6.1 7.8 80.9 80.9 8.0 14.4 8.1 267.0 282.5 0.00 0.4530000 82.6
2021-05-08 17:30:00 80.5 6.5 9.0 80.5 80.5 7.1 16.0 9.1 319.7 300.3 0.00 0.4380000 82.5
2021-05-08 17:35:00 80.7 7.2 11.5 80.7 80.7 4.0 12.2 6.1 223.8 268.2 0.00 0.4230000 82.5
2021-05-08 17:40:00 80.6 6.7 9.8 80.6 80.6 9.7 15.1 7.6 244.6 276.5 0.00 0.4030000 82.5
2021-05-08 17:45:00 80.3 6.9 10.2 80.3 80.3 5.6 13.3 7.7 289.8 259.1 0.00 0.3850000 82.5
2021-05-08 17:50:00 80.5 7.3 11.5 80.5 80.5 4.7 11.9 7.2 225.4 264.6 0.00 0.3690000 82.5
2021-05-08 17:55:00 80.8 7.0 10.9 80.8 80.8 6.0 10.1 6.1 314.5 305.7 0.00 0.3560000 82.4
2021-05-08 18:00:00 80.5 6.0 7.3 80.5 80.5 7.2 17.6 9.0 275.6 314.8 0.00 0.3390000 82.4
2021-05-08 18:05:00 80.3 6.3 8.1 80.3 80.3 8.1 12.4 8.3 292.4 273.8 0.00 0.3200000 82.4
2021-05-08 18:10:00 79.9 6.3 8.0 79.9 79.9 5.8 12.2 8.1 107.2 287.0 0.00 0.3030000 82.4
2021-05-08 18:15:00 79.9 6.8 9.7 79.9 79.9 6.7 15.3 7.0 285.5 293.4 0.00 0.2860000 82.3
2021-05-08 18:20:00 79.9 6.6 9.0 79.9 79.9 10.5 11.2 6.8 256.7 311.7 0.00 0.2690000 82.3
2021-05-08 18:25:00 79.9 6.5 8.7 79.9 79.9 12.1 12.8 7.0 271.4 290.2 0.00 0.2520000 82.2
2021-05-08 18:30:00 79.3 6.8 9.2 79.3 79.3 11.9 12.4 7.8 15.2 301.3 0.00 0.2350000 82.2
2021-05-08 18:35:00 79.0 7.5 11.2 79.0 79.0 2.8 14.0 9.3 298.6 298.0 0.00 0.2180000 82.1
2021-05-08 18:40:00 78.9 7.4 10.8 78.9 78.9 4.0 11.0 7.3 338.7 302.1 0.00 0.2020000 82.1
2021-05-08 18:45:00 79.1 7.5 11.2 79.1 79.1 9.7 13.1 7.4 279.3 317.9 0.00 0.1830000 82.1
2021-05-08 18:50:00 78.6 7.9 12.1 78.6 78.6 4.0 13.3 8.9 106.2 289.7 0.00 0.1670000 82.0
2021-05-08 18:55:00 78.5 8.0 12.3 78.5 78.5 7.6 12.8 6.6 287.1 272.4 0.00 0.1520000 81.9
2021-05-08 19:00:00 78.4 8.4 13.3 78.4 78.4 8.5 11.7 6.5 271.3 274.0 0.00 0.1370000 81.9
2021-05-08 19:05:00 78.3 8.4 13.3 78.3 78.3 4.2 10.1 5.7 68.3 304.9 0.00 0.1230000 81.8
2021-05-08 19:10:00 77.9 8.5 13.2 77.9 77.9 6.9 9.6 5.6 333.0 293.0 0.00 0.1070000 81.7
2021-05-08 19:15:00 77.8 9.1 14.7 77.8 77.8 6.9 12.1 7.5 290.7 272.1 0.00 0.0910000 81.6
2021-05-08 19:20:00 77.3 8.9 13.6 77.3 77.3 5.8 11.7 6.8 307.7 264.1 0.00 0.0750000 81.5
2021-05-08 19:25:00 77.0 8.9 13.5 77.0 77.0 8.1 12.1 7.5 271.4 269.1 0.00 0.0590000 81.4
2021-05-08 19:30:00 76.7 9.2 14.1 76.7 76.7 10.1 11.9 7.1 309.1 291.8 0.00 0.0440000 81.3
2021-05-08 19:35:00 76.3 9.2 13.8 76.3 76.3 5.3 11.3 7.5 62.8 293.0 0.00 0.0180000 81.2
2021-05-08 19:40:00 75.8 9.6 14.4 75.8 75.8 5.8 7.8 5.2 231.7 282.8 0.00 0.0130000 81.1
2021-05-08 19:45:00 75.5 9.6 14.1 75.5 75.5 4.2 7.1 4.6 18.1 277.2 0.00 0.0100000 81.0
2021-05-08 19:50:00 75.0 9.7 14.1 75.0 75.0 5.3 7.6 5.1 264.7 289.5 0.00 0.0070000 80.8
2021-05-08 19:55:00 74.8 9.7 13.8 74.8 74.8 3.1 8.3 4.8 268.8 262.7 0.00 0.0040000 80.7
2021-05-08 20:00:00 74.3 9.9 14.0 74.3 74.3 1.9 6.5 3.9 303.2 282.7 0.00 0.0030000 80.6
2021-05-08 20:05:00 73.8 9.8 13.4 73.8 73.8 3.8 8.5 4.2 260.9 267.9 0.00 0.0020000 80.5
2021-05-08 20:10:00 73.2 9.9 13.2 73.2 73.2 2.2 5.3 3.4 160.3 249.5 0.00 0.0010000 80.3
2021-05-08 20:15:00 72.8 10.4 14.0 72.8 72.8 2.4 4.7 2.6 244.7 263.1 0.00 0.0000000 80.2
2021-05-08 20:20:00 72.3 10.1 12.9 72.3 72.3 6.7 8.1 3.3 326.4 267.8 0.00 0.0000000 80.1
2021-05-08 20:25:00 71.9 10.3 13.1 71.9 71.9 5.3 5.8 4.3 8.9 278.4 0.00 0.0000000 79.9
2021-05-08 20:30:00 72.3 11.0 14.9 72.3 72.3 2.8 7.1 4.1 282.6 337.7 0.00 0.0000000 79.8
2021-05-08 20:35:00 72.2 12.3 17.2 72.2 72.2 2.8 7.1 2.6 269.4 313.5 0.00 0.0000000 79.7
2021-05-08 20:40:00 71.9 13.7 19.6 71.9 71.9 3.8 5.3 3.1 247.8 322.1 0.00 0.0000000 79.5
2021-05-08 20:45:00 71.8 14.7 21.1 71.8 71.8 4.4 7.2 4.6 3.5 352.5 0.00 0.0000000 79.4
2021-05-08 20:50:00 71.6 15.4 22.1 71.6 71.6 4.7 7.1 4.3 8.3 357.1 0.00 0.0000000 79.3
2021-05-08 20:55:00 71.6 15.7 22.5 71.6 71.6 4.9 8.5 5.1 0.0 359.6 0.00 0.0000000 79.1
2021-05-08 21:00:00 71.4 15.8 22.5 71.4 71.4 2.8 6.9 4.1 18.1 345.9 0.00 0.0000000 79.0
2021-05-08 21:05:00 71.2 15.8 22.4 71.2 71.2 2.6 6.3 3.9 187.3 359.9 0.00 0.0000000 78.8
2021-05-08 21:10:00 71.1 16.1 22.8 71.1 71.1 3.5 5.3 3.7 343.4 350.2 0.00 0.0000000 78.7
2021-05-08 21:15:00 70.5 16.5 22.9 70.5 70.5 3.5 5.5 2.6 19.2 343.1 0.00 0.0000000 78.6
2021-05-08 21:20:00 70.4 16.8 23.3 70.4 70.4 3.5 6.0 3.2 323.7 0.4 0.00 0.0000000 78.5
2021-05-08 21:25:00 70.2 16.9 23.1 70.2 70.2 3.7 4.9 2.8 38.1 5.9 0.00 0.0000000 78.3
2021-05-08 21:30:00 70.2 16.9 23.2 70.2 70.2 4.7 7.2 4.2 8.4 344.5 0.00 0.0000000 78.2
2021-05-08 21:35:00 70.4 17.0 23.4 70.4 70.4 3.8 7.1 3.7 332.8 4.1 0.00 0.0000000 78.1
2021-05-08 21:40:00 70.1 17.0 23.3 70.1 70.1 2.2 5.6 3.4 7.5 7.6 0.00 0.0000000 78.0
2021-05-08 21:45:00 70.1 17.3 23.7 70.1 70.1 3.1 5.6 3.8 31.0 357.4 0.00 0.0000000 77.8
2021-05-08 21:50:00 70.1 17.4 23.7 70.1 70.1 3.3 4.7 3.2 293.4 343.9 0.00 0.0000000 77.7
2021-05-08 21:55:00 69.7 17.2 23.3 69.7 69.7 5.6 6.3 4.2 13.4 350.8 0.00 0.0000000 77.6
2021-05-08 22:00:00 70.0 17.1 23.3 70.0 70.0 2.8 6.0 4.1 331.6 330.1 0.00 0.0000000 77.5
2021-05-08 22:05:00 69.9 16.9 22.9 69.9 69.9 5.5 7.8 4.1 230.9 339.7 0.00 0.0000000 77.4
2021-05-08 22:10:00 70.1 17.0 23.2 70.1 70.1 4.0 6.0 3.9 48.8 340.3 0.00 0.0000000 77.3
2021-05-08 22:15:00 69.9 16.8 22.8 69.9 69.9 2.1 6.9 3.9 332.9 345.5 0.00 0.0000000 77.2
2021-05-08 22:20:00 70.2 16.9 23.2 70.2 70.2 2.8 5.5 3.2 276.9 320.3 0.00 0.0000000 77.1
2021-05-08 22:25:00 70.0 16.8 22.9 70.0 70.0 2.4 5.3 2.4 135.8 339.5 0.00 0.0000000 76.9
2021-05-08 22:30:00 70.0 17.0 23.2 70.0 70.0 2.4 5.1 2.9 289.4 312.0 0.00 0.0000000 76.8
2021-05-08 22:35:00 69.7 17.3 23.3 69.7 69.7 2.2 3.7 2.4 212.4 314.6 0.00 0.0000000 76.7
2021-05-08 22:40:00 69.4 17.6 23.4 69.4 69.4 4.2 4.9 2.6 274.8 306.5 0.00 0.0000000 76.6
2021-05-08 22:45:00 68.7 18.1 23.6 68.7 68.7 3.8 4.0 2.6 275.2 291.0 0.00 0.0000000 76.5
2021-05-08 22:50:00 68.2 18.8 24.1 68.2 68.2 2.6 4.4 2.8 0.2 311.0 0.00 0.0000000 76.4
2021-05-08 22:55:00 67.6 19.2 24.1 67.6 67.6 3.5 4.4 2.4 35.4 330.7 0.00 0.0000000 76.3
2021-05-08 23:00:00 67.3 19.1 23.7 67.3 67.3 3.3 4.4 2.7 254.5 308.0 0.00 0.0000000 76.2
2021-05-08 23:05:00 67.4 19.3 24.0 67.4 67.4 2.1 5.5 2.9 300.2 318.0 0.00 0.0000000 76.1
2021-05-08 23:10:00 67.2 19.2 23.7 67.2 67.2 1.7 3.0 2.0 84.4 327.8 0.00 0.0000000 76.0
2021-05-08 23:15:00 67.4 18.9 23.5 67.4 67.4 1.3 3.3 2.0 257.4 336.1 0.00 0.0000000 75.9
2021-05-08 23:20:00 67.2 19.0 23.4 67.2 67.2 1.5 4.2 2.3 301.7 323.9 0.00 0.0000000 75.7

Data is courtesy of the NM Climate Center. DO NOT USE IN LEGAL PROCEEDINGS.